sensor_id;sensor_type;location;lat;lon;timestamp;P1;durP1;ratioP1;P2;durP2;ratioP2
68074;SDS011;54864;52.002;5.468;2022-09-09T00:00:12;6.97;;;2.92;;
68074;SDS011;54864;52.002;5.468;2022-09-09T00:01:20;4.65;;;2.20;;
68074;SDS011;54864;52.002;5.468;2022-09-09T00:02:28;4.28;;;2.92;;
68074;SDS011;54864;52.002;5.468;2022-09-09T00:03:31;4.85;;;3.00;;
68074;SDS011;54864;52.002;5.468;2022-09-09T00:04:38;3.83;;;2.80;;
68074;SDS011;54864;52.002;5.468;2022-09-09T00:05:43;4.00;;;2.83;;
68074;SDS011;54864;52.002;5.468;2022-09-09T00:06:50;4.97;;;2.50;;
68074;SDS011;54864;52.002;5.468;2022-09-09T00:08:01;4.10;;;2.75;;
68074;SDS011;54864;52.002;5.468;2022-09-09T00:09:04;3.25;;;2.90;;
68074;SDS011;54864;52.002;5.468;2022-09-09T00:10:17;4.95;;;3.03;;
68074;SDS011;54864;52.002;5.468;2022-09-09T00:11:24;4.20;;;3.13;;
68074;SDS011;54864;52.002;5.468;2022-09-09T00:12:33;6.32;;;3.30;;
68074;SDS011;54864;52.002;5.468;2022-09-09T00:13:43;6.30;;;3.30;;
68074;SDS011;54864;52.002;5.468;2022-09-09T00:14:51;5.32;;;3.47;;
68074;SDS011;54864;52.002;5.468;2022-09-09T00:15:54;5.80;;;3.17;;
68074;SDS011;54864;52.002;5.468;2022-09-09T00:17:02;4.13;;;2.90;;
68074;SDS011;54864;52.002;5.468;2022-09-09T00:18:09;6.03;;;3.50;;
68074;SDS011;54864;52.002;5.468;2022-09-09T00:19:20;5.55;;;3.78;;
68074;SDS011;54864;52.002;5.468;2022-09-09T00:20:26;7.40;;;3.80;;
68074;SDS011;54864;52.002;5.468;2022-09-09T00:21:34;6.28;;;3.85;;
68074;SDS011;54864;52.002;5.468;2022-09-09T00:22:36;4.53;;;3.10;;
68074;SDS011;54864;52.002;5.468;2022-09-09T00:23:47;5.55;;;3.67;;
68074;SDS011;54864;52.002;5.468;2022-09-09T00:24:52;5.55;;;3.58;;
68074;SDS011;54864;52.002;5.468;2022-09-09T00:25:58;7.55;;;3.92;;
68074;SDS011;54864;52.002;5.468;2022-09-09T00:27:06;6.22;;;3.70;;
68074;SDS011;54864;52.002;5.468;2022-09-09T00:28:16;5.90;;;3.90;;
68074;SDS011;54864;52.002;5.468;2022-09-09T00:29:22;6.45;;;3.90;;
68074;SDS011;54864;52.002;5.468;2022-09-09T00:30:31;6.30;;;3.95;;
68074;SDS011;54864;52.002;5.468;2022-09-09T00:31:35;4.70;;;4.20;;
68074;SDS011;54864;52.002;5.468;2022-09-09T00:32:39;6.87;;;4.40;;
68074;SDS011;54864;52.002;5.468;2022-09-09T00:33:39;5.13;;;3.60;;
68074;SDS011;54864;52.002;5.468;2022-09-09T00:34:47;5.47;;;3.75;;
68074;SDS011;54864;52.002;5.468;2022-09-09T00:35:51;5.40;;;4.00;;
68074;SDS011;54864;52.002;5.468;2022-09-09T00:36:55;7.53;;;4.15;;
68074;SDS011;54864;52.002;5.468;2022-09-09T00:37:56;4.82;;;3.60;;
68074;SDS011;54864;52.002;5.468;2022-09-09T00:39:03;8.18;;;3.80;;
68074;SDS011;54864;52.002;5.468;2022-09-09T00:40:06;7.43;;;4.20;;
68074;SDS011;54864;52.002;5.468;2022-09-09T00:41:21;7.55;;;4.20;;
68074;SDS011;54864;52.002;5.468;2022-09-09T00:42:26;5.95;;;4.03;;
68074;SDS011;54864;52.002;5.468;2022-09-09T00:43:38;5.07;;;3.75;;
68074;SDS011;54864;52.002;5.468;2022-09-09T00:44:46;6.88;;;4.35;;
68074;SDS011;54864;52.002;5.468;2022-09-09T00:45:57;7.00;;;4.00;;
68074;SDS011;54864;52.002;5.468;2022-09-09T00:47:12;4.15;;;3.70;;
68074;SDS011;54864;52.002;5.468;2022-09-09T00:48:33;6.90;;;4.13;;
68074;SDS011;54864;52.002;5.468;2022-09-09T00:49:43;5.32;;;4.10;;
68074;SDS011;54864;52.002;5.468;2022-09-09T00:50:56;6.22;;;3.95;;
68074;SDS011;54864;52.002;5.468;2022-09-09T00:52:03;4.97;;;3.63;;
68074;SDS011;54864;52.002;5.468;2022-09-09T00:53:21;7.05;;;3.60;;
68074;SDS011;54864;52.002;5.468;2022-09-09T00:54:33;4.30;;;3.40;;
68074;SDS011;54864;52.002;5.468;2022-09-09T00:55:41;5.38;;;3.42;;
68074;SDS011;54864;52.002;5.468;2022-09-09T00:56:50;4.22;;;3.40;;
68074;SDS011;54864;52.002;5.468;2022-09-09T00:58:01;5.43;;;3.78;;
68074;SDS011;54864;52.002;5.468;2022-09-09T00:59:04;4.73;;;3.20;;
68074;SDS011;54864;52.002;5.468;2022-09-09T01:00:17;6.03;;;3.40;;
68074;SDS011;54864;52.002;5.468;2022-09-09T01:01:21;5.22;;;3.33;;
68074;SDS011;54864;52.002;5.468;2022-09-09T01:02:25;8.13;;;3.60;;
68074;SDS011;54864;52.002;5.468;2022-09-09T01:03:33;4.22;;;3.10;;
68074;SDS011;54864;52.002;5.468;2022-09-09T01:04:35;4.80;;;3.23;;
68074;SDS011;54864;52.002;5.468;2022-09-09T01:05:39;6.60;;;3.28;;
68074;SDS011;54864;52.002;5.468;2022-09-09T01:06:45;5.10;;;3.08;;
68074;SDS011;54864;52.002;5.468;2022-09-09T01:07:54;5.70;;;3.30;;
68074;SDS011;54864;52.002;5.468;2022-09-09T01:09:02;7.60;;;3.03;;
68074;SDS011;54864;52.002;5.468;2022-09-09T01:10:14;4.20;;;3.10;;
68074;SDS011;54864;52.002;5.468;2022-09-09T01:11:25;4.97;;;2.97;;
68074;SDS011;54864;52.002;5.468;2022-09-09T01:12:35;5.63;;;2.70;;
68074;SDS011;54864;52.002;5.468;2022-09-09T01:13:41;5.43;;;3.40;;
68074;SDS011;54864;52.002;5.468;2022-09-09T01:14:47;4.38;;;2.97;;
68074;SDS011;54864;52.002;5.468;2022-09-09T01:15:52;5.43;;;3.20;;
68074;SDS011;54864;52.002;5.468;2022-09-09T01:16:55;4.60;;;2.60;;
68074;SDS011;54864;52.002;5.468;2022-09-09T01:18:00;3.58;;;2.63;;
68074;SDS011;54864;52.002;5.468;2022-09-09T01:19:07;5.00;;;2.70;;
68074;SDS011;54864;52.002;5.468;2022-09-09T01:20:15;7.15;;;3.35;;
68074;SDS011;54864;52.002;5.468;2022-09-09T01:21:22;4.60;;;2.67;;
68074;SDS011;54864;52.002;5.468;2022-09-09T01:22:35;4.03;;;2.88;;
68074;SDS011;54864;52.002;5.468;2022-09-09T01:23:44;5.20;;;2.70;;
68074;SDS011;54864;52.002;5.468;2022-09-09T01:25:07;4.85;;;2.97;;
68074;SDS011;54864;52.002;5.468;2022-09-09T01:26:22;6.75;;;3.15;;
68074;SDS011;54864;52.002;5.468;2022-09-09T01:27:27;5.28;;;3.28;;
68074;SDS011;54864;52.002;5.468;2022-09-09T01:28:28;6.60;;;3.07;;
68074;SDS011;54864;52.002;5.468;2022-09-09T01:29:31;4.03;;;2.90;;
68074;SDS011;54864;52.002;5.468;2022-09-09T01:30:37;6.43;;;3.30;;
68074;SDS011;54864;52.002;5.468;2022-09-09T01:31:40;6.70;;;2.85;;
68074;SDS011;54864;52.002;5.468;2022-09-09T01:32:44;6.78;;;3.25;;
68074;SDS011;54864;52.002;5.468;2022-09-09T01:33:46;5.45;;;3.03;;
68074;SDS011;54864;52.002;5.468;2022-09-09T01:34:48;4.93;;;2.83;;
68074;SDS011;54864;52.002;5.468;2022-09-09T01:35:52;7.63;;;3.22;;
68074;SDS011;54864;52.002;5.468;2022-09-09T01:36:59;7.60;;;3.33;;
68074;SDS011;54864;52.002;5.468;2022-09-09T01:38:05;4.30;;;3.10;;
68074;SDS011;54864;52.002;5.468;2022-09-09T01:39:06;8.50;;;3.28;;
68074;SDS011;54864;52.002;5.468;2022-09-09T01:40:08;7.82;;;3.35;;
68074;SDS011;54864;52.002;5.468;2022-09-09T01:41:08;6.45;;;2.95;;
68074;SDS011;54864;52.002;5.468;2022-09-09T01:42:12;5.05;;;2.97;;
68074;SDS011;54864;52.002;5.468;2022-09-09T01:43:16;6.72;;;3.22;;
68074;SDS011;54864;52.002;5.468;2022-09-09T01:44:17;4.50;;;2.88;;
68074;SDS011;54864;52.002;5.468;2022-09-09T01:45:20;5.10;;;3.35;;
68074;SDS011;54864;52.002;5.468;2022-09-09T01:46:22;5.70;;;3.10;;
68074;SDS011;54864;52.002;5.468;2022-09-09T01:47:25;6.43;;;3.05;;
68074;SDS011;54864;52.002;5.468;2022-09-09T01:48:25;5.07;;;3.13;;
68074;SDS011;54864;52.002;5.468;2022-09-09T01:49:28;4.55;;;3.30;;
68074;SDS011;54864;52.002;5.468;2022-09-09T01:50:30;7.75;;;3.15;;
68074;SDS011;54864;52.002;5.468;2022-09-09T01:51:30;11.40;;;3.13;;
68074;SDS011;54864;52.002;5.468;2022-09-09T01:52:32;6.03;;;3.40;;
68074;SDS011;54864;52.002;5.468;2022-09-09T01:53:36;7.50;;;3.55;;
68074;SDS011;54864;52.002;5.468;2022-09-09T01:54:39;5.60;;;3.20;;
68074;SDS011;54864;52.002;5.468;2022-09-09T01:55:41;8.67;;;3.47;;
68074;SDS011;54864;52.002;5.468;2022-09-09T01:56:53;7.22;;;3.58;;
68074;SDS011;54864;52.002;5.468;2022-09-09T01:58:14;5.57;;;3.55;;
68074;SDS011;54864;52.002;5.468;2022-09-09T01:59:45;6.20;;;3.35;;
68074;SDS011;54864;52.002;5.468;2022-09-09T02:00:56;6.43;;;3.63;;
68074;SDS011;54864;52.002;5.468;2022-09-09T02:02:08;6.80;;;3.30;;
68074;SDS011;54864;52.002;5.468;2022-09-09T02:03:14;6.22;;;3.08;;
68074;SDS011;54864;52.002;5.468;2022-09-09T02:04:24;5.28;;;3.22;;
68074;SDS011;54864;52.002;5.468;2022-09-09T02:05:36;5.07;;;3.40;;
68074;SDS011;54864;52.002;5.468;2022-09-09T02:06:39;6.25;;;3.17;;
68074;SDS011;54864;52.002;5.468;2022-09-09T02:07:42;7.93;;;3.65;;
68074;SDS011;54864;52.002;5.468;2022-09-09T02:08:48;6.40;;;3.88;;
68074;SDS011;54864;52.002;5.468;2022-09-09T02:09:52;5.10;;;3.55;;
68074;SDS011;54864;52.002;5.468;2022-09-09T02:11:02;9.57;;;3.55;;
68074;SDS011;54864;52.002;5.468;2022-09-09T02:12:08;6.30;;;3.67;;
68074;SDS011;54864;52.002;5.468;2022-09-09T02:13:16;9.82;;;3.40;;
68074;SDS011;54864;52.002;5.468;2022-09-09T02:14:21;7.15;;;3.28;;
68074;SDS011;54864;52.002;5.468;2022-09-09T02:15:28;5.65;;;3.50;;
68074;SDS011;54864;52.002;5.468;2022-09-09T02:16:36;7.18;;;3.60;;
68074;SDS011;54864;52.002;5.468;2022-09-09T02:17:40;6.65;;;3.97;;
68074;SDS011;54864;52.002;5.468;2022-09-09T02:18:45;6.85;;;3.70;;
68074;SDS011;54864;52.002;5.468;2022-09-09T02:19:51;7.55;;;3.72;;
68074;SDS011;54864;52.002;5.468;2022-09-09T02:20:59;6.65;;;3.90;;
68074;SDS011;54864;52.002;5.468;2022-09-09T02:22:00;6.10;;;3.65;;
68074;SDS011;54864;52.002;5.468;2022-09-09T02:23:02;4.45;;;3.58;;
68074;SDS011;54864;52.002;5.468;2022-09-09T02:24:05;5.03;;;3.50;;
68074;SDS011;54864;52.002;5.468;2022-09-09T02:25:10;6.13;;;3.50;;
68074;SDS011;54864;52.002;5.468;2022-09-09T02:26:15;6.65;;;3.90;;
68074;SDS011;54864;52.002;5.468;2022-09-09T02:27:21;5.97;;;3.85;;
68074;SDS011;54864;52.002;5.468;2022-09-09T02:28:24;7.20;;;4.18;;
68074;SDS011;54864;52.002;5.468;2022-09-09T02:29:30;6.37;;;3.90;;
68074;SDS011;54864;52.002;5.468;2022-09-09T02:30:35;6.65;;;4.03;;
68074;SDS011;54864;52.002;5.468;2022-09-09T02:31:39;5.57;;;4.05;;
68074;SDS011;54864;52.002;5.468;2022-09-09T02:32:43;6.70;;;3.95;;
68074;SDS011;54864;52.002;5.468;2022-09-09T02:33:48;5.80;;;3.85;;
68074;SDS011;54864;52.002;5.468;2022-09-09T02:34:55;7.95;;;3.97;;
68074;SDS011;54864;52.002;5.468;2022-09-09T02:35:59;5.50;;;3.97;;
68074;SDS011;54864;52.002;5.468;2022-09-09T02:37:03;7.85;;;3.65;;
68074;SDS011;54864;52.002;5.468;2022-09-09T02:38:09;7.03;;;3.75;;
68074;SDS011;54864;52.002;5.468;2022-09-09T02:39:13;9.20;;;4.50;;
68074;SDS011;54864;52.002;5.468;2022-09-09T02:40:14;6.70;;;3.77;;
68074;SDS011;54864;52.002;5.468;2022-09-09T02:41:16;9.27;;;3.90;;
68074;SDS011;54864;52.002;5.468;2022-09-09T02:42:18;6.57;;;3.85;;
68074;SDS011;54864;52.002;5.468;2022-09-09T02:43:20;8.02;;;3.90;;
68074;SDS011;54864;52.002;5.468;2022-09-09T02:44:23;10.85;;;4.47;;
68074;SDS011;54864;52.002;5.468;2022-09-09T02:45:25;6.70;;;4.00;;
68074;SDS011;54864;52.002;5.468;2022-09-09T02:46:32;10.48;;;4.70;;
68074;SDS011;54864;52.002;5.468;2022-09-09T02:47:44;8.23;;;4.15;;
68074;SDS011;54864;52.002;5.468;2022-09-09T02:48:53;8.43;;;4.00;;
68074;SDS011;54864;52.002;5.468;2022-09-09T02:50:03;6.90;;;3.97;;
68074;SDS011;54864;52.002;5.468;2022-09-09T02:51:14;7.20;;;3.72;;
68074;SDS011;54864;52.002;5.468;2022-09-09T02:52:20;5.82;;;3.50;;
68074;SDS011;54864;52.002;5.468;2022-09-09T02:53:30;6.88;;;4.20;;
68074;SDS011;54864;52.002;5.468;2022-09-09T02:54:38;7.32;;;4.00;;
68074;SDS011;54864;52.002;5.468;2022-09-09T02:55:41;6.07;;;3.90;;
68074;SDS011;54864;52.002;5.468;2022-09-09T02:56:49;6.82;;;3.97;;
68074;SDS011;54864;52.002;5.468;2022-09-09T02:57:54;9.90;;;4.22;;
68074;SDS011;54864;52.002;5.468;2022-09-09T02:58:56;8.68;;;4.05;;
68074;SDS011;54864;52.002;5.468;2022-09-09T02:59:59;7.95;;;3.92;;
68074;SDS011;54864;52.002;5.468;2022-09-09T03:01:01;8.75;;;3.88;;
68074;SDS011;54864;52.002;5.468;2022-09-09T03:02:03;7.10;;;3.85;;
68074;SDS011;54864;52.002;5.468;2022-09-09T03:03:04;7.80;;;4.00;;
68074;SDS011;54864;52.002;5.468;2022-09-09T03:04:06;10.60;;;4.30;;
68074;SDS011;54864;52.002;5.468;2022-09-09T03:05:06;7.45;;;4.22;;
68074;SDS011;54864;52.002;5.468;2022-09-09T03:06:09;5.47;;;3.97;;
68074;SDS011;54864;52.002;5.468;2022-09-09T03:07:10;8.25;;;4.30;;
68074;SDS011;54864;52.002;5.468;2022-09-09T03:08:12;7.38;;;3.95;;
68074;SDS011;54864;52.002;5.468;2022-09-09T03:09:13;6.32;;;4.00;;
68074;SDS011;54864;52.002;5.468;2022-09-09T03:10:14;7.55;;;3.85;;
68074;SDS011;54864;52.002;5.468;2022-09-09T03:11:15;6.67;;;3.50;;
68074;SDS011;54864;52.002;5.468;2022-09-09T03:12:17;7.95;;;4.57;;
68074;SDS011;54864;52.002;5.468;2022-09-09T03:13:17;6.50;;;4.05;;
68074;SDS011;54864;52.002;5.468;2022-09-09T03:14:19;7.45;;;4.00;;
68074;SDS011;54864;52.002;5.468;2022-09-09T03:15:22;8.20;;;3.88;;
68074;SDS011;54864;52.002;5.468;2022-09-09T03:16:24;9.30;;;4.30;;
68074;SDS011;54864;52.002;5.468;2022-09-09T03:17:25;5.85;;;3.78;;
68074;SDS011;54864;52.002;5.468;2022-09-09T03:18:28;6.85;;;3.47;;
68074;SDS011;54864;52.002;5.468;2022-09-09T03:19:28;8.18;;;3.90;;
68074;SDS011;54864;52.002;5.468;2022-09-09T03:20:30;7.85;;;4.10;;
68074;SDS011;54864;52.002;5.468;2022-09-09T03:21:31;7.72;;;4.30;;
68074;SDS011;54864;52.002;5.468;2022-09-09T03:22:33;7.65;;;4.07;;
68074;SDS011;54864;52.002;5.468;2022-09-09T03:23:34;5.47;;;3.97;;
68074;SDS011;54864;52.002;5.468;2022-09-09T03:24:36;9.05;;;4.07;;
68074;SDS011;54864;52.002;5.468;2022-09-09T03:25:36;8.32;;;3.75;;
68074;SDS011;54864;52.002;5.468;2022-09-09T03:26:38;8.57;;;4.10;;
68074;SDS011;54864;52.002;5.468;2022-09-09T03:27:40;10.73;;;4.07;;
68074;SDS011;54864;52.002;5.468;2022-09-09T03:28:42;6.68;;;4.20;;
68074;SDS011;54864;52.002;5.468;2022-09-09T03:29:44;7.43;;;3.80;;
68074;SDS011;54864;52.002;5.468;2022-09-09T03:30:47;6.22;;;3.90;;
68074;SDS011;54864;52.002;5.468;2022-09-09T03:31:49;8.68;;;3.97;;
68074;SDS011;54864;52.002;5.468;2022-09-09T03:32:51;6.72;;;4.10;;
68074;SDS011;54864;52.002;5.468;2022-09-09T03:33:52;9.00;;;4.15;;
68074;SDS011;54864;52.002;5.468;2022-09-09T03:34:53;7.77;;;4.00;;
68074;SDS011;54864;52.002;5.468;2022-09-09T03:35:54;10.53;;;4.40;;
68074;SDS011;54864;52.002;5.468;2022-09-09T03:36:56;7.65;;;4.00;;
68074;SDS011;54864;52.002;5.468;2022-09-09T03:37:58;6.32;;;4.45;;
68074;SDS011;54864;52.002;5.468;2022-09-09T03:38:58;7.23;;;4.37;;
68074;SDS011;54864;52.002;5.468;2022-09-09T03:40:00;10.25;;;4.20;;
68074;SDS011;54864;52.002;5.468;2022-09-09T03:41:01;6.68;;;4.03;;
68074;SDS011;54864;52.002;5.468;2022-09-09T03:42:05;8.10;;;4.50;;
68074;SDS011;54864;52.002;5.468;2022-09-09T03:43:06;8.55;;;4.45;;
68074;SDS011;54864;52.002;5.468;2022-09-09T03:44:08;7.55;;;4.00;;
68074;SDS011;54864;52.002;5.468;2022-09-09T03:45:09;7.50;;;4.25;;
68074;SDS011;54864;52.002;5.468;2022-09-09T03:46:12;6.88;;;4.00;;
68074;SDS011;54864;52.002;5.468;2022-09-09T03:47:13;9.45;;;4.47;;
68074;SDS011;54864;52.002;5.468;2022-09-09T03:48:15;5.55;;;4.00;;
68074;SDS011;54864;52.002;5.468;2022-09-09T03:49:16;7.03;;;4.32;;
68074;SDS011;54864;52.002;5.468;2022-09-09T03:50:18;6.47;;;3.95;;
68074;SDS011;54864;52.002;5.468;2022-09-09T03:51:18;8.17;;;4.30;;
68074;SDS011;54864;52.002;5.468;2022-09-09T03:52:21;7.22;;;3.97;;
68074;SDS011;54864;52.002;5.468;2022-09-09T03:53:25;7.47;;;4.13;;
68074;SDS011;54864;52.002;5.468;2022-09-09T03:54:26;8.75;;;4.30;;
68074;SDS011;54864;52.002;5.468;2022-09-09T03:55:27;5.95;;;4.10;;
68074;SDS011;54864;52.002;5.468;2022-09-09T03:56:28;7.18;;;4.28;;
68074;SDS011;54864;52.002;5.468;2022-09-09T03:57:29;9.65;;;4.10;;
68074;SDS011;54864;52.002;5.468;2022-09-09T03:58:32;8.38;;;4.22;;
68074;SDS011;54864;52.002;5.468;2022-09-09T03:59:33;8.93;;;4.10;;
68074;SDS011;54864;52.002;5.468;2022-09-09T04:00:35;7.20;;;4.10;;
68074;SDS011;54864;52.002;5.468;2022-09-09T04:01:37;9.33;;;4.53;;
68074;SDS011;54864;52.002;5.468;2022-09-09T04:02:39;7.53;;;4.13;;
68074;SDS011;54864;52.002;5.468;2022-09-09T04:03:40;9.70;;;4.50;;
68074;SDS011;54864;52.002;5.468;2022-09-09T04:04:42;7.50;;;4.13;;
68074;SDS011;54864;52.002;5.468;2022-09-09T04:05:42;8.23;;;4.40;;
68074;SDS011;54864;52.002;5.468;2022-09-09T04:06:44;11.07;;;4.22;;
68074;SDS011;54864;52.002;5.468;2022-09-09T04:07:46;7.63;;;4.40;;
68074;SDS011;54864;52.002;5.468;2022-09-09T04:08:46;7.68;;;4.00;;
68074;SDS011;54864;52.002;5.468;2022-09-09T04:09:49;7.93;;;4.18;;
68074;SDS011;54864;52.002;5.468;2022-09-09T04:10:51;10.13;;;4.13;;
68074;SDS011;54864;52.002;5.468;2022-09-09T04:11:52;5.78;;;3.85;;
68074;SDS011;54864;52.002;5.468;2022-09-09T04:12:54;9.57;;;4.07;;
68074;SDS011;54864;52.002;5.468;2022-09-09T04:13:55;12.45;;;4.72;;
68074;SDS011;54864;52.002;5.468;2022-09-09T04:14:57;8.25;;;4.13;;
68074;SDS011;54864;52.002;5.468;2022-09-09T04:15:58;9.95;;;4.05;;
68074;SDS011;54864;52.002;5.468;2022-09-09T04:17:02;7.40;;;4.68;;
68074;SDS011;54864;52.002;5.468;2022-09-09T04:18:06;8.63;;;3.97;;
68074;SDS011;54864;52.002;5.468;2022-09-09T04:19:08;8.18;;;3.97;;
68074;SDS011;54864;52.002;5.468;2022-09-09T04:20:12;8.50;;;4.30;;
68074;SDS011;54864;52.002;5.468;2022-09-09T04:21:13;9.20;;;4.37;;
68074;SDS011;54864;52.002;5.468;2022-09-09T04:22:16;6.65;;;3.60;;
68074;SDS011;54864;52.002;5.468;2022-09-09T04:23:16;6.20;;;4.15;;
68074;SDS011;54864;52.002;5.468;2022-09-09T04:24:19;10.60;;;4.13;;
68074;SDS011;54864;52.002;5.468;2022-09-09T04:25:21;10.10;;;4.18;;
68074;SDS011;54864;52.002;5.468;2022-09-09T04:26:22;10.47;;;4.07;;
68074;SDS011;54864;52.002;5.468;2022-09-09T04:27:24;10.73;;;4.28;;
68074;SDS011;54864;52.002;5.468;2022-09-09T04:28:25;12.18;;;4.13;;
68074;SDS011;54864;52.002;5.468;2022-09-09T04:29:28;8.32;;;4.20;;
68074;SDS011;54864;52.002;5.468;2022-09-09T04:30:28;5.80;;;4.18;;
68074;SDS011;54864;52.002;5.468;2022-09-09T04:31:30;8.13;;;4.13;;
68074;SDS011;54864;52.002;5.468;2022-09-09T04:32:33;10.15;;;4.18;;
68074;SDS011;54864;52.002;5.468;2022-09-09T04:33:35;9.52;;;4.43;;
68074;SDS011;54864;52.002;5.468;2022-09-09T04:34:36;14.23;;;3.95;;
68074;SDS011;54864;52.002;5.468;2022-09-09T04:35:38;11.60;;;4.90;;
68074;SDS011;54864;52.002;5.468;2022-09-09T04:36:44;15.70;;;4.50;;
68074;SDS011;54864;52.002;5.468;2022-09-09T04:37:45;12.68;;;4.47;;
68074;SDS011;54864;52.002;5.468;2022-09-09T04:38:46;8.50;;;4.00;;
68074;SDS011;54864;52.002;5.468;2022-09-09T04:39:49;13.15;;;4.28;;
68074;SDS011;54864;52.002;5.468;2022-09-09T04:40:50;10.65;;;3.97;;
68074;SDS011;54864;52.002;5.468;2022-09-09T04:41:53;7.85;;;3.95;;
68074;SDS011;54864;52.002;5.468;2022-09-09T04:42:55;9.75;;;4.20;;
68074;SDS011;54864;52.002;5.468;2022-09-09T04:43:58;9.60;;;4.45;;
68074;SDS011;54864;52.002;5.468;2022-09-09T04:45:00;9.23;;;4.32;;
68074;SDS011;54864;52.002;5.468;2022-09-09T04:46:01;10.07;;;3.90;;
68074;SDS011;54864;52.002;5.468;2022-09-09T04:47:03;9.82;;;4.05;;
68074;SDS011;54864;52.002;5.468;2022-09-09T04:48:05;8.45;;;4.35;;
68074;SDS011;54864;52.002;5.468;2022-09-09T04:49:07;9.25;;;4.30;;
68074;SDS011;54864;52.002;5.468;2022-09-09T04:50:08;12.25;;;4.25;;
68074;SDS011;54864;52.002;5.468;2022-09-09T04:51:11;8.32;;;3.75;;
68074;SDS011;54864;52.002;5.468;2022-09-09T04:52:13;8.80;;;4.10;;
68074;SDS011;54864;52.002;5.468;2022-09-09T04:53:18;8.35;;;3.88;;
68074;SDS011;54864;52.002;5.468;2022-09-09T04:54:19;10.88;;;3.63;;
68074;SDS011;54864;52.002;5.468;2022-09-09T04:55:20;9.55;;;4.40;;
68074;SDS011;54864;52.002;5.468;2022-09-09T04:56:21;12.60;;;3.80;;
68074;SDS011;54864;52.002;5.468;2022-09-09T04:57:23;9.40;;;4.00;;
68074;SDS011;54864;52.002;5.468;2022-09-09T04:58:24;10.27;;;3.80;;
68074;SDS011;54864;52.002;5.468;2022-09-09T04:59:26;12.80;;;4.20;;
68074;SDS011;54864;52.002;5.468;2022-09-09T05:00:28;7.80;;;3.67;;
68074;SDS011;54864;52.002;5.468;2022-09-09T05:01:28;11.97;;;3.93;;
68074;SDS011;54864;52.002;5.468;2022-09-09T05:02:30;13.48;;;4.10;;
68074;SDS011;54864;52.002;5.468;2022-09-09T05:03:33;10.98;;;3.95;;
68074;SDS011;54864;52.002;5.468;2022-09-09T05:04:35;10.73;;;4.00;;
68074;SDS011;54864;52.002;5.468;2022-09-09T05:05:35;9.33;;;3.70;;
68074;SDS011;54864;52.002;5.468;2022-09-09T05:06:37;11.13;;;4.38;;
68074;SDS011;54864;52.002;5.468;2022-09-09T05:07:37;9.20;;;4.20;;
68074;SDS011;54864;52.002;5.468;2022-09-09T05:08:39;11.77;;;4.05;;
68074;SDS011;54864;52.002;5.468;2022-09-09T05:09:41;9.73;;;3.75;;
68074;SDS011;54864;52.002;5.468;2022-09-09T05:10:43;8.23;;;3.47;;
68074;SDS011;54864;52.002;5.468;2022-09-09T05:11:44;7.47;;;3.83;;
68074;SDS011;54864;52.002;5.468;2022-09-09T05:12:51;9.95;;;3.75;;
68074;SDS011;54864;52.002;5.468;2022-09-09T05:13:53;9.18;;;3.88;;
68074;SDS011;54864;52.002;5.468;2022-09-09T05:14:55;7.57;;;3.75;;
68074;SDS011;54864;52.002;5.468;2022-09-09T05:15:55;11.65;;;3.97;;
68074;SDS011;54864;52.002;5.468;2022-09-09T05:16:57;6.60;;;3.75;;
68074;SDS011;54864;52.002;5.468;2022-09-09T05:17:58;10.10;;;3.97;;
68074;SDS011;54864;52.002;5.468;2022-09-09T05:19:01;11.85;;;3.95;;
68074;SDS011;54864;52.002;5.468;2022-09-09T05:20:04;11.02;;;4.07;;
68074;SDS011;54864;52.002;5.468;2022-09-09T05:21:05;12.63;;;4.15;;
68074;SDS011;54864;52.002;5.468;2022-09-09T05:22:07;9.90;;;3.92;;
68074;SDS011;54864;52.002;5.468;2022-09-09T05:23:07;7.95;;;4.00;;
68074;SDS011;54864;52.002;5.468;2022-09-09T05:24:09;8.93;;;3.65;;
68074;SDS011;54864;52.002;5.468;2022-09-09T05:25:11;10.68;;;3.85;;
68074;SDS011;54864;52.002;5.468;2022-09-09T05:26:13;11.73;;;3.67;;
68074;SDS011;54864;52.002;5.468;2022-09-09T05:27:15;8.10;;;3.50;;
68074;SDS011;54864;52.002;5.468;2022-09-09T05:28:16;10.88;;;3.78;;
68074;SDS011;54864;52.002;5.468;2022-09-09T05:29:17;10.95;;;3.95;;
68074;SDS011;54864;52.002;5.468;2022-09-09T05:30:19;10.52;;;3.85;;
68074;SDS011;54864;52.002;5.468;2022-09-09T05:31:22;9.38;;;3.70;;
68074;SDS011;54864;52.002;5.468;2022-09-09T05:32:24;12.48;;;3.63;;
68074;SDS011;54864;52.002;5.468;2022-09-09T05:33:24;12.85;;;3.90;;
68074;SDS011;54864;52.002;5.468;2022-09-09T05:34:28;13.00;;;4.18;;
68074;SDS011;54864;52.002;5.468;2022-09-09T05:35:29;10.88;;;4.15;;
68074;SDS011;54864;52.002;5.468;2022-09-09T05:36:30;11.52;;;4.07;;
68074;SDS011;54864;52.002;5.468;2022-09-09T05:37:31;11.57;;;4.00;;
68074;SDS011;54864;52.002;5.468;2022-09-09T05:38:33;12.77;;;4.20;;
68074;SDS011;54864;52.002;5.468;2022-09-09T05:39:34;9.02;;;3.88;;
68074;SDS011;54864;52.002;5.468;2022-09-09T05:40:37;8.75;;;3.42;;
68074;SDS011;54864;52.002;5.468;2022-09-09T05:41:38;15.90;;;4.30;;
68074;SDS011;54864;52.002;5.468;2022-09-09T05:42:40;15.70;;;4.13;;
68074;SDS011;54864;52.002;5.468;2022-09-09T05:43:40;11.90;;;3.80;;
68074;SDS011;54864;52.002;5.468;2022-09-09T05:44:44;9.25;;;3.75;;
68074;SDS011;54864;52.002;5.468;2022-09-09T05:45:45;9.73;;;3.80;;
68074;SDS011;54864;52.002;5.468;2022-09-09T05:46:47;10.25;;;3.78;;
68074;SDS011;54864;52.002;5.468;2022-09-09T05:47:51;11.52;;;4.13;;
68074;SDS011;54864;52.002;5.468;2022-09-09T05:48:53;7.93;;;3.85;;
68074;SDS011;54864;52.002;5.468;2022-09-09T05:49:55;9.87;;;3.67;;
68074;SDS011;54864;52.002;5.468;2022-09-09T05:50:57;10.23;;;3.85;;
68074;SDS011;54864;52.002;5.468;2022-09-09T05:51:59;10.75;;;3.63;;
68074;SDS011;54864;52.002;5.468;2022-09-09T05:53:00;10.73;;;4.00;;
68074;SDS011;54864;52.002;5.468;2022-09-09T05:54:01;10.33;;;3.83;;
68074;SDS011;54864;52.002;5.468;2022-09-09T05:55:03;12.57;;;3.67;;
68074;SDS011;54864;52.002;5.468;2022-09-09T05:56:05;9.20;;;3.73;;
68074;SDS011;54864;52.002;5.468;2022-09-09T05:57:10;11.40;;;3.97;;
68074;SDS011;54864;52.002;5.468;2022-09-09T05:58:10;10.63;;;3.50;;
68074;SDS011;54864;52.002;5.468;2022-09-09T05:59:12;9.93;;;3.65;;
68074;SDS011;54864;52.002;5.468;2022-09-09T06:00:15;8.68;;;3.72;;
68074;SDS011;54864;52.002;5.468;2022-09-09T06:01:17;8.93;;;3.58;;
68074;SDS011;54864;52.002;5.468;2022-09-09T06:02:20;10.00;;;3.92;;
68074;SDS011;54864;52.002;5.468;2022-09-09T06:03:20;7.77;;;4.07;;
68074;SDS011;54864;52.002;5.468;2022-09-09T06:04:23;11.95;;;3.63;;
68074;SDS011;54864;52.002;5.468;2022-09-09T06:05:25;8.82;;;3.65;;
68074;SDS011;54864;52.002;5.468;2022-09-09T06:06:30;10.20;;;3.63;;
68074;SDS011;54864;52.002;5.468;2022-09-09T06:07:31;12.93;;;4.00;;
68074;SDS011;54864;52.002;5.468;2022-09-09T06:08:33;7.60;;;3.42;;
68074;SDS011;54864;52.002;5.468;2022-09-09T06:09:37;9.55;;;4.00;;
68074;SDS011;54864;52.002;5.468;2022-09-09T06:10:38;11.85;;;4.40;;
68074;SDS011;54864;52.002;5.468;2022-09-09T06:11:39;10.88;;;3.80;;
68074;SDS011;54864;52.002;5.468;2022-09-09T06:12:41;12.30;;;3.70;;
68074;SDS011;54864;52.002;5.468;2022-09-09T06:13:42;11.53;;;3.70;;
68074;SDS011;54864;52.002;5.468;2022-09-09T06:14:43;12.63;;;3.90;;
68074;SDS011;54864;52.002;5.468;2022-09-09T06:15:49;9.57;;;4.18;;
68074;SDS011;54864;52.002;5.468;2022-09-09T06:16:51;12.15;;;3.97;;
68074;SDS011;54864;52.002;5.468;2022-09-09T06:17:54;12.75;;;4.05;;
68074;SDS011;54864;52.002;5.468;2022-09-09T06:18:55;16.08;;;3.70;;
68074;SDS011;54864;52.002;5.468;2022-09-09T06:19:58;9.75;;;3.38;;
68074;SDS011;54864;52.002;5.468;2022-09-09T06:21:01;15.65;;;4.15;;
68074;SDS011;54864;52.002;5.468;2022-09-09T06:22:04;14.27;;;4.00;;
68074;SDS011;54864;52.002;5.468;2022-09-09T06:23:05;16.42;;;4.20;;
68074;SDS011;54864;52.002;5.468;2022-09-09T06:24:07;10.00;;;3.70;;